| time (UTC) | temp C | wind direction | speed KPH | gust KPH | rain 1hr cm | rain 24hr cm | rain mn cm | humidity % | barometer mb |
| 20260905182722 | 17 | 333 | 4.8 | 12.9 | 0.00 | 0.00 | 0.08 | 61 | 1025.0 |
| 20260905180722 | 17 | 332 | 4.8 | 17.7 | 0.00 | 0.00 | 0.08 | 61 | 1024.2 |
| 20260905174722 | 18 | 320 | 4.8 | 14.5 | 0.00 | 0.00 | 0.08 | 60 | 1023.9 |
| 20260905172722 | 18 | 303 | 8.0 | 20.9 | 0.00 | 0.00 | 0.08 | 56 | 1024.0 |
| 20260905170722 | 18 | 303 | 6.4 | 17.7 | 0.00 | 0.00 | 0.08 | 56 | 1023.7 |
| 20260905164722 | 18 | 293 | 11.3 | 27.4 | 0.00 | 0.00 | 0.08 | 54 | 1023.6 |
| 20260905162722 | 19 | 276 | 12.9 | 41.8 | 0.00 | 0.00 | 0.08 | 51 | 1023.4 |
| 20260905160722 | 20 | 298 | 16.1 | 43.5 | 0.00 | 0.00 | 0.08 | 48 | 1023.1 |
| 20260905154722 | 19 | 283 | 17.7 | 40.2 | 0.00 | 0.00 | 0.08 | 51 | 1023.0 |
| 20260905152722 | 20 | 287 | 19.3 | 35.4 | 0.00 | 0.00 | 0.08 | 47 | 1023.1 |
| 20260905150722 | 21 | 277 | 17.7 | 43.5 | 0.00 | 0.00 | 0.08 | 45 | 1023.2 |
| 20260905144722 | 21 | 292 | 16.1 | 40.2 | 0.00 | 0.00 | 0.08 | 45 | 1023.0 |
| 20260905142722 | 21 | 292 | 12.9 | 35.4 | 0.00 | 0.00 | 0.08 | 47 | 1023.2 |
| 20260905140722 | 20 | 294 | 14.5 | 35.4 | 0.00 | 0.00 | 0.08 | 47 | 1023.4 |
| 20260905134722 | 20 | 295 | 17.7 | 40.2 | 0.00 | 0.00 | 0.08 | 46 | 1023.3 |
| 20260905132722 | 20 | 305 | 16.1 | 49.9 | 0.00 | 0.00 | 0.08 | 49 | 1023.4 |
| 20260905130722 | 20 | 291 | 12.9 | 35.4 | 0.00 | 0.00 | 0.08 | 48 | 1023.3 |
| 20260905124722 | 20 | 304 | 14.5 | 38.6 | 0.00 | 0.00 | 0.08 | 48 | 1023.4 |
| 20260905122722 | 21 | 305 | 12.9 | 37.0 | 0.00 | 0.00 | 0.08 | 50 | 1023.5 |
| 20260905120722 | 20 | 279 | 12.9 | 30.6 | 0.00 | 0.00 | 0.08 | 48 | 1023.3 |
| 20260905114722 | 19 | 284 | 16.1 | 35.4 | 0.00 | 0.00 | 0.08 | 51 | 1023.6 |
| 20260905112722 | 18 | 257 | 11.3 | 33.8 | 0.00 | 0.00 | 0.08 | 57 | 1023.3 |
| 20260905110722 | 17 | 296 | 11.3 | 33.8 | 0.00 | 0.00 | 0.08 | 63 | 1023.3 |
| 20260905104722 | 18 | 301 | 11.3 | 29.0 | 0.00 | 0.00 | 0.08 | 66 | 1023.4 |
| 20260905102722 | 17 | 292 | 11.3 | 29.0 | 0.00 | 0.00 | 0.08 | 66 | 1023.5 |
| 20260905100722 | 17 | 291 | 9.7 | 27.4 | 0.00 | 0.00 | 0.08 | 69 | 1023.7 |
| 20260905094722 | 17 | 301 | 9.7 | 27.4 | 0.00 | 0.00 | 0.08 | 73 | 1023.9 |
| 20260905092722 | 17 | 289 | 9.7 | 25.7 | 0.00 | 0.00 | 0.08 | 71 | 1023.9 |
| 20260905090722 | 15 | 285 | 9.7 | 25.7 | 0.00 | 0.00 | 0.08 | 80 | 1023.9 |
| 20260905084722 | 13 | 282 | 6.4 | 27.4 | 0.00 | 0.00 | 0.08 | 86 | 1023.8 |
| 20260905082722 | 13 | 271 | 8.0 | 22.5 | 0.00 | 0.00 | 0.08 | 87 | 1023.4 |
| 20260905080722 | 13 | 304 | 9.7 | 22.5 | 0.00 | 0.00 | 0.08 | 88 | 1023.0 |
| 20260905074722 | 12 | 301 | 8.0 | 22.5 | 0.00 | 0.00 | 0.08 | 89 | 1023.0 |
| 20260905072722 | 12 | 288 | 8.0 | 22.5 | 0.03 | 0.00 | 0.08 | 89 | 1022.5 |
| 20260905070722 | 12 | 285 | 9.7 | 25.7 | 0.05 | 0.00 | 0.08 | 89 | 1022.9 |
| 20260905064722 | 12 | 302 | 8.0 | 25.7 | 0.03 | 0.00 | 0.05 | 89 | 1022.2 |
| 20260905062722 | 13 | 299 | 9.7 | 24.1 | 0.03 | 0.00 | 0.05 | 89 | 1022.0 |
| 20260905060722 | 14 | 288 | 12.9 | 37.0 | 0.00 | 0.00 | 0.03 | 89 | 1022.5 |
| 20260905054722 | 14 | 292 | 11.3 | 33.8 | 0.00 | 0.00 | 0.03 | 88 | 1021.8 |
| 20260905052722 | 14 | 316 | 6.4 | 24.1 | 0.00 | 0.00 | 0.03 | 92 | 1021.8 |
| 20260905050722 | 14 | 313 | 3.2 | 11.3 | 0.00 | 0.00 | 0.03 | 92 | 1022.1 |
| 20260905044722 | 14 | 322 | 4.8 | 12.9 | 0.00 | 0.00 | 0.03 | 89 | 1021.8 |
| 20260905042722 | 14 | 323 | 6.4 | 16.1 | 0.03 | 0.00 | 0.03 | 88 | 1020.8 |
| 20260905040722 | 15 | 318 | 6.4 | 22.5 | 0.03 | 0.00 | 0.03 | 88 | 1020.5 |
| 20260905034722 | 15 | 312 | 9.7 | 22.5 | 0.03 | 0.00 | 0.03 | 88 | 1020.9 |
| 20260905032722 | 16 | 310 | 8.0 | 22.5 | 0.00 | 0.00 | 0.00 | 77 | 1020.1 |
| 20260905030722 | 16 | 321 | 8.0 | 24.1 | 0.00 | 0.00 | 0.00 | 76 | 1020.1 |
| 20260905024722 | 16 | 324 | 6.4 | 22.5 | 0.00 | 0.00 | 0.00 | 74 | 1020.1 |
| 20260905022722 | 16 | 328 | 8.0 | 25.7 | 0.00 | 0.00 | 0.00 | 73 | 1019.9 |
| 20260905020722 | 17 | 327 | 9.7 | 25.7 | 0.00 | 0.00 | 0.00 | 71 | 1019.7 |
| 20260905014722 | 17 | 326 | 11.3 | 30.6 | 0.00 | 0.00 | 0.00 | 71 | 1019.7 |
| 20260905012722 | 18 | 321 | 14.5 | 35.4 | 0.00 | 0.00 | 0.00 | 72 | 1019.3 |
| 20260905010722 | 18 | 326 | 14.5 | 35.4 | 0.00 | 0.00 | 0.00 | 73 | 1019.1 |
| 20260905004722 | 22 | 323 | 14.5 | 46.7 | 0.00 | 0.00 | 0.00 | 59 | 1017.6 |
| 20260905002722 | 21 | 290 | 9.7 | 22.5 | 0.00 | 0.00 | 0.00 | 60 | 1017.4 |
| 20260905000722 | 21 | 290 | 6.4 | 14.5 | 0.00 | 0.00 | 0.00 | 61 | 1017.3 |
| 20260904234722 | 21 | 269 | 8.0 | 20.9 | 0.00 | 0.00 | 0.00 | 61 | 1017.2 |
| 20260904232721 | 21 | 273 | 8.0 | 16.1 | 0.00 | 0.00 | 0.00 | 61 | 1017.3 |
| 20260904230721 | 21 | 275 | 4.8 | 12.9 | 0.00 | 0.00 | 0.00 | 61 | 1017.1 |
| 20260904224721 | 21 | 288 | 4.8 | 14.5 | 0.00 | 0.00 | 0.00 | 60 | 1017.2 |
| 20260904222721 | 21 | 277 | 6.4 | 14.5 | 0.00 | 0.00 | 0.00 | 60 | 1017.4 |
| 20260904220721 | 21 | 302 | 3.2 | 11.3 | 0.00 | 0.00 | 0.00 | 59 | 1017.3 |
| 20260904214721 | 21 | 268 | 4.8 | 14.5 | 0.00 | 0.00 | 0.00 | 58 | 1017.3 |
| 20260904212721 | 21 | 268 | 4.8 | 12.9 | 0.00 | 0.00 | 0.00 | 58 | 1017.5 |
| 20260904210721 | 22 | 294 | 3.2 | 11.3 | 0.00 | 0.00 | 0.00 | 57 | 1017.4 |
| 20260904204721 | 22 | 244 | 8.0 | 17.7 | 0.00 | 0.00 | 0.00 | 55 | 1017.3 |
| 20260904202721 | 23 | 227 | 12.9 | 24.1 | 0.00 | 0.00 | 0.00 | 54 | 1017.7 |
| 20260904200721 | 23 | 223 | 11.3 | 20.9 | 0.00 | 0.00 | 0.00 | 54 | 1017.9 |
| 20260904194721 | 23 | 237 | 8.0 | 14.5 | 0.00 | 0.00 | 0.00 | 54 | 1018.2 |
| 20260904192721 | 23 | 234 | 8.0 | 14.5 | 0.00 | 0.00 | 0.00 | 54 | 1018.5 |
| 20260904190721 | 23 | 231 | 8.0 | 12.9 | 0.00 | 0.00 | 0.00 | 54 | 1018.4 |
| 20260904184722 | 23 | 234 | 6.4 | 12.9 | 0.00 | 0.00 | 0.00 | 55 | 1018.4 |